createdAt,value
2018-05-25T00:00:43.778Z,0.00
2018-05-25T00:01:44.002Z,0.00
2018-05-25T00:02:44.241Z,0.00
2018-05-25T00:03:44.466Z,0.00
2018-05-25T00:04:44.685Z,0.00
2018-05-25T00:05:44.928Z,0.00
2018-05-25T00:06:45.163Z,0.00
2018-05-25T00:07:45.387Z,0.00
2018-05-25T00:08:45.621Z,0.00
2018-05-25T00:09:45.855Z,0.00
2018-05-25T00:10:46.083Z,0.00
2018-05-25T00:11:46.309Z,0.00
2018-05-25T00:12:46.539Z,0.00
2018-05-25T00:13:46.773Z,0.00
2018-05-25T00:14:46.998Z,0.00
2018-05-25T00:15:47.231Z,0.00
2018-05-25T00:16:47.471Z,0.00
2018-05-25T00:17:47.693Z,0.00
2018-05-25T00:18:47.925Z,0.00
2018-05-25T00:19:48.157Z,0.00
2018-05-25T00:20:48.387Z,0.00
2018-05-25T00:21:48.630Z,0.00
2018-05-25T00:22:48.853Z,0.00
2018-05-25T00:23:49.078Z,0.00
2018-05-25T00:24:49.325Z,0.00
2018-05-25T00:25:49.540Z,0.00
2018-05-25T00:26:49.776Z,0.00
2018-05-25T00:27:50.002Z,0.00
2018-05-25T00:28:50.236Z,0.00
2018-05-25T00:29:50.464Z,0.00
2018-05-25T00:30:50.694Z,0.00
2018-05-25T00:31:50.924Z,0.00
2018-05-25T00:32:51.150Z,0.00
2018-05-25T00:33:51.378Z,0.00
2018-05-25T00:34:51.606Z,0.00
2018-05-25T00:35:51.845Z,0.00
2018-05-25T00:36:52.074Z,0.00
2018-05-25T00:37:52.309Z,0.00
2018-05-25T00:38:52.528Z,0.00
2018-05-25T00:39:52.753Z,0.00
2018-05-25T00:40:52.985Z,0.00
2018-05-25T00:41:53.213Z,0.00
2018-05-25T00:42:53.443Z,0.00
2018-05-25T00:43:53.684Z,0.00
2018-05-25T00:44:53.903Z,0.00
2018-05-25T00:45:54.127Z,0.00
2018-05-25T00:46:54.373Z,0.00
2018-05-25T00:47:54.602Z,0.00
2018-05-25T00:48:54.844Z,0.00
2018-05-25T00:49:55.056Z,0.00
2018-05-25T00:50:55.288Z,0.00
2018-05-25T00:51:55.517Z,0.00
2018-05-25T00:52:55.744Z,0.00
2018-05-25T00:53:55.980Z,0.00
2018-05-25T00:54:56.209Z,0.00
2018-05-25T00:55:56.434Z,0.00
2018-05-25T00:56:56.657Z,0.00
2018-05-25T00:57:56.888Z,0.00
2018-05-25T00:58:57.135Z,0.00
2018-05-25T00:59:57.379Z,0.00
2018-05-25T01:00:57.599Z,0.00
2018-05-25T01:01:57.829Z,0.00
2018-05-25T01:02:58.060Z,0.00
2018-05-25T01:03:58.298Z,0.00
2018-05-25T01:04:58.525Z,0.00
2018-05-25T01:05:58.751Z,0.00
2018-05-25T01:06:58.973Z,0.00
2018-05-25T01:07:59.211Z,0.00
2018-05-25T01:08:59.445Z,0.00
2018-05-25T01:09:59.671Z,0.00
2018-05-25T01:10:59.916Z,0.00
2018-05-25T01:12:00.129Z,0.00
2018-05-25T01:13:00.354Z,0.00
2018-05-25T01:14:00.577Z,0.00
2018-05-25T01:15:00.807Z,0.00
2018-05-25T01:16:01.042Z,0.00
2018-05-25T01:17:01.287Z,0.00
2018-05-25T01:18:01.517Z,0.00
2018-05-25T01:19:01.736Z,0.00
2018-05-25T01:20:01.965Z,0.00
2018-05-25T01:21:02.190Z,0.00
2018-05-25T01:22:02.432Z,0.00
2018-05-25T01:23:02.650Z,0.00
2018-05-25T01:24:02.876Z,0.00
2018-05-25T01:25:03.086Z,0.00
2018-05-25T01:26:03.319Z,0.00
2018-05-25T01:27:03.546Z,0.00
2018-05-25T01:28:03.776Z,0.00
2018-05-25T01:29:04.024Z,0.00
2018-05-25T01:30:04.236Z,0.00
2018-05-25T01:31:04.459Z,0.00
2018-05-25T01:32:04.687Z,0.00
2018-05-25T01:33:04.917Z,0.00
2018-05-25T01:34:05.147Z,0.00
2018-05-25T01:35:05.376Z,0.00
2018-05-25T01:36:05.614Z,0.00
2018-05-25T01:37:05.848Z,0.00
2018-05-25T01:38:06.077Z,0.00
2018-05-25T01:39:06.308Z,0.00
2018-05-25T01:40:06.554Z,0.00
2018-05-25T01:41:06.759Z,0.00
2018-05-25T01:42:06.996Z,0.00
2018-05-25T01:43:07.225Z,0.00
2018-05-25T01:44:07.456Z,0.00
2018-05-25T01:45:07.687Z,0.00
2018-05-25T01:46:07.913Z,0.00
2018-05-25T01:47:08.141Z,0.00
2018-05-25T01:48:08.375Z,0.00
2018-05-25T01:49:08.602Z,0.00
2018-05-25T01:50:08.831Z,0.00
2018-05-25T01:51:09.062Z,0.00
2018-05-25T01:52:09.309Z,0.00
2018-05-25T01:53:09.521Z,0.00
2018-05-25T01:54:09.759Z,0.00
2018-05-25T01:55:09.989Z,0.00
2018-05-25T01:56:10.221Z,0.00
2018-05-25T01:57:10.445Z,0.00
2018-05-25T01:58:10.681Z,0.00
2018-05-25T01:59:10.911Z,0.00
2018-05-25T02:00:11.141Z,0.00
2018-05-25T02:01:11.376Z,0.00
2018-05-25T02:02:11.634Z,0.00
2018-05-25T02:03:11.837Z,0.00
2018-05-25T02:04:12.051Z,0.00
2018-05-25T02:05:12.275Z,0.00
2018-05-25T02:06:12.505Z,0.00
2018-05-25T02:07:12.737Z,0.00
2018-05-25T02:08:12.969Z,0.00
2018-05-25T02:09:13.195Z,0.00
2018-05-25T02:10:13.426Z,0.00
2018-05-25T02:11:13.669Z,0.00
2018-05-25T02:12:13.902Z,0.00
2018-05-25T02:13:14.141Z,0.00
2018-05-25T02:14:14.349Z,0.00
2018-05-25T02:15:14.579Z,0.00
2018-05-25T02:16:14.814Z,0.00
2018-05-25T02:17:15.046Z,0.00
2018-05-25T02:18:15.278Z,0.00
2018-05-25T02:19:15.507Z,0.00
2018-05-25T02:20:15.744Z,0.00
2018-05-25T02:21:15.968Z,0.00
2018-05-25T02:22:16.199Z,0.00
2018-05-25T02:23:16.430Z,0.00
2018-05-25T02:24:16.659Z,0.00
2018-05-25T02:25:16.889Z,0.00
2018-05-25T02:26:17.125Z,0.00
2018-05-25T02:27:17.353Z,0.00
2018-05-25T02:28:17.584Z,0.00
2018-05-25T02:29:17.820Z,0.00
2018-05-25T02:30:18.048Z,0.00
2018-05-25T02:31:18.273Z,0.00
2018-05-25T02:32:18.509Z,0.00
2018-05-25T02:33:18.740Z,0.00
2018-05-25T02:34:18.971Z,0.00
2018-05-25T02:35:19.206Z,0.00
2018-05-25T02:36:19.432Z,0.00
2018-05-25T02:37:19.665Z,0.00
2018-05-25T02:38:19.895Z,0.00
2018-05-25T02:39:20.143Z,0.00
2018-05-25T02:40:20.358Z,0.00
2018-05-25T02:41:20.592Z,0.00
2018-05-25T02:42:20.824Z,0.00
2018-05-25T02:43:21.053Z,0.00
2018-05-25T02:44:21.285Z,0.00
2018-05-25T02:45:21.515Z,0.00
2018-05-25T02:46:21.738Z,0.00
2018-05-25T02:47:21.994Z,0.00
2018-05-25T02:48:22.181Z,0.00
2018-05-25T02:49:22.424Z,0.00
2018-05-25T02:50:22.647Z,0.00
2018-05-25T02:51:22.876Z,0.00
2018-05-25T02:52:23.108Z,0.00
2018-05-25T02:53:23.337Z,0.00
2018-05-25T02:54:23.568Z,0.00
2018-05-25T02:55:23.797Z,0.00
2018-05-25T02:56:24.026Z,0.00
2018-05-25T02:57:24.257Z,0.00
2018-05-25T02:58:24.490Z,0.00
2018-05-25T02:59:24.709Z,0.00
2018-05-25T03:00:24.940Z,0.00
2018-05-25T03:01:25.169Z,0.00
2018-05-25T03:02:25.399Z,0.00
2018-05-25T03:03:25.625Z,0.00
2018-05-25T03:04:25.856Z,0.00
2018-05-25T03:05:26.088Z,0.00
2018-05-25T03:06:26.319Z,0.00
2018-05-25T03:07:26.550Z,0.00
2018-05-25T03:08:26.782Z,0.00
2018-05-25T03:09:27.026Z,0.00
2018-05-25T03:10:27.243Z,0.00
2018-05-25T03:11:27.476Z,0.00
2018-05-25T03:12:27.708Z,0.00
2018-05-25T03:13:27.942Z,5.63
2018-05-25T03:14:28.174Z,5.63
2018-05-25T03:15:28.403Z,5.63
2018-05-25T03:16:28.634Z,5.63
2018-05-25T03:17:28.865Z,5.63
2018-05-25T03:18:29.097Z,5.63
2018-05-25T03:19:29.334Z,5.63
2018-05-25T03:20:29.562Z,5.63
2018-05-25T03:21:29.786Z,11.25
2018-05-25T03:22:30.015Z,11.25
2018-05-25T03:23:30.252Z,11.25
2018-05-25T03:24:30.476Z,11.25
2018-05-25T03:25:30.711Z,16.88
2018-05-25T03:26:30.938Z,16.88
2018-05-25T03:27:31.166Z,16.88
2018-05-25T03:28:31.402Z,22.50
2018-05-25T03:29:31.634Z,22.50
2018-05-25T03:30:31.862Z,22.50
2018-05-25T03:31:32.094Z,28.13
2018-05-25T03:32:32.324Z,28.13
2018-05-25T03:33:32.556Z,28.13
2018-05-25T03:34:32.789Z,28.13
2018-05-25T03:35:33.036Z,28.13
2018-05-25T03:36:33.248Z,33.75
2018-05-25T03:37:33.478Z,33.75
2018-05-25T03:38:33.713Z,33.75
2018-05-25T03:39:33.936Z,33.75
2018-05-25T03:40:34.168Z,33.75
2018-05-25T03:41:34.411Z,33.75
2018-05-25T03:42:34.623Z,39.38
2018-05-25T03:43:34.855Z,39.38
2018-05-25T03:44:35.085Z,39.38
2018-05-25T03:45:35.321Z,39.38
2018-05-25T03:46:35.550Z,33.75
2018-05-25T03:47:35.791Z,33.75
2018-05-25T03:48:36.007Z,33.75
2018-05-25T03:49:36.239Z,33.75
2018-05-25T03:50:36.471Z,33.75
2018-05-25T03:51:36.699Z,33.75
2018-05-25T03:52:36.952Z,33.75
2018-05-25T03:53:37.149Z,33.75
2018-05-25T03:54:37.383Z,39.38
2018-05-25T03:55:37.648Z,39.38
2018-05-25T03:56:37.849Z,39.38
2018-05-25T03:57:38.078Z,39.38
2018-05-25T03:58:38.322Z,39.38
2018-05-25T03:59:38.529Z,39.38
2018-05-25T04:00:38.759Z,45.00
2018-05-25T04:01:39.039Z,45.00
2018-05-25T04:02:39.224Z,45.00
2018-05-25T04:03:39.452Z,50.63
2018-05-25T04:04:39.682Z,56.25
2018-05-25T04:05:39.913Z,56.25
2018-05-25T04:06:40.147Z,56.25
2018-05-25T04:07:40.377Z,56.25
2018-05-25T04:08:40.607Z,56.25
2018-05-25T04:09:40.838Z,56.25
2018-05-25T04:10:41.070Z,56.25
2018-05-25T04:11:41.300Z,56.25
2018-05-25T04:12:41.533Z,56.25
2018-05-25T04:13:41.766Z,61.88
2018-05-25T04:14:41.998Z,61.88
2018-05-25T04:15:42.222Z,67.50
2018-05-25T04:16:42.455Z,67.50
2018-05-25T04:17:42.681Z,67.50
2018-05-25T04:18:42.904Z,67.50
2018-05-25T04:19:43.145Z,73.13
2018-05-25T04:20:43.371Z,73.13
2018-05-25T04:21:43.592Z,73.13
2018-05-25T04:22:43.830Z,73.13
2018-05-25T04:23:44.065Z,78.75
2018-05-25T04:24:44.291Z,78.75
2018-05-25T04:25:44.521Z,78.75
2018-05-25T04:26:44.750Z,84.38
2018-05-25T04:27:44.987Z,84.38
2018-05-25T04:28:45.216Z,84.38
2018-05-25T04:29:45.448Z,90.00
2018-05-25T04:30:45.678Z,90.00
2018-05-25T04:31:45.911Z,90.00
2018-05-25T04:32:46.150Z,95.63
2018-05-25T04:33:46.381Z,95.63
2018-05-25T04:34:46.608Z,95.63
2018-05-25T04:35:46.834Z,95.63
2018-05-25T04:36:47.066Z,95.63
2018-05-25T04:37:47.295Z,95.63
2018-05-25T04:38:47.525Z,95.63
2018-05-25T04:39:47.758Z,95.63
2018-05-25T04:40:47.986Z,95.63
2018-05-25T04:41:48.221Z,95.63
2018-05-25T04:42:48.460Z,95.63
2018-05-25T04:43:48.683Z,95.63
2018-05-25T04:44:48.912Z,95.63
2018-05-25T04:45:49.145Z,95.63
2018-05-25T04:46:49.375Z,95.63
2018-05-25T04:47:49.609Z,95.63
2018-05-25T04:48:49.848Z,95.63
2018-05-25T04:49:50.071Z,95.63
2018-05-25T04:50:50.300Z,95.63
2018-05-25T04:51:50.539Z,101.25
2018-05-25T04:52:50.766Z,101.25
2018-05-25T04:53:50.984Z,106.88
2018-05-25T04:54:51.214Z,106.88
2018-05-25T04:55:51.443Z,112.50
2018-05-25T04:56:51.673Z,112.50
2018-05-25T04:57:51.909Z,118.13
2018-05-25T04:58:52.194Z,123.75
2018-05-25T04:59:52.365Z,129.38
2018-05-25T05:00:52.599Z,140.63
2018-05-25T05:01:52.829Z,146.25
2018-05-25T05:02:53.060Z,151.88
2018-05-25T05:03:53.291Z,157.50
2018-05-25T05:04:53.546Z,163.13
2018-05-25T05:05:53.746Z,168.75
2018-05-25T05:06:53.985Z,174.38
2018-05-25T05:07:54.216Z,180.00
2018-05-25T05:08:54.449Z,185.63
2018-05-25T05:09:54.679Z,191.25
2018-05-25T05:10:54.909Z,196.88
2018-05-25T05:11:55.138Z,202.50
2018-05-25T05:12:55.370Z,208.13
2018-05-25T05:13:55.607Z,208.13
2018-05-25T05:14:55.834Z,208.13
2018-05-25T05:15:56.066Z,208.13
2018-05-25T05:16:56.298Z,202.50
2018-05-25T05:17:56.526Z,196.88
2018-05-25T05:18:56.758Z,191.25
2018-05-25T05:19:56.988Z,191.25
2018-05-25T05:20:57.216Z,185.63
2018-05-25T05:21:57.443Z,185.63
2018-05-25T05:22:57.678Z,185.63
2018-05-25T05:23:57.911Z,185.63
2018-05-25T05:24:58.137Z,180.00
2018-05-25T05:25:58.368Z,180.00
2018-05-25T05:26:58.596Z,180.00
2018-05-25T05:27:58.828Z,174.38
2018-05-25T05:28:59.064Z,174.38
2018-05-25T05:29:59.299Z,168.75
2018-05-25T05:30:59.530Z,168.75
2018-05-25T05:31:59.761Z,163.13
2018-05-25T05:32:59.992Z,163.13
2018-05-25T05:34:00.897Z,157.50
2018-05-25T05:35:00.500Z,157.50
2018-05-25T05:36:00.733Z,157.50
2018-05-25T05:37:00.965Z,157.50
2018-05-25T05:38:01.193Z,157.50
2018-05-25T05:39:01.427Z,157.50
2018-05-25T05:40:01.653Z,157.50
2018-05-25T05:41:01.893Z,157.50
2018-05-25T05:42:02.119Z,163.13
2018-05-25T05:43:02.354Z,163.13
2018-05-25T05:44:02.583Z,168.75
2018-05-25T05:45:02.813Z,174.38
2018-05-25T05:46:03.045Z,180.00
2018-05-25T05:47:03.277Z,191.25
2018-05-25T05:48:03.521Z,196.88
2018-05-25T05:49:03.743Z,208.13
2018-05-25T05:50:03.973Z,225.00
2018-05-25T05:51:04.208Z,236.25
2018-05-25T05:52:04.439Z,236.25
2018-05-25T05:53:04.672Z,247.50
2018-05-25T05:54:04.903Z,253.13
2018-05-25T05:55:05.137Z,264.38
2018-05-25T05:56:05.371Z,270.00
2018-05-25T05:57:05.604Z,275.63
2018-05-25T05:58:05.836Z,281.25
2018-05-25T05:59:06.073Z,286.88
2018-05-25T06:00:06.305Z,292.50
2018-05-25T06:01:06.537Z,303.75
2018-05-25T06:02:06.778Z,309.38
2018-05-25T06:03:07.009Z,320.63
2018-05-25T06:04:07.224Z,326.25
2018-05-25T06:05:07.459Z,337.50
2018-05-25T06:06:07.691Z,348.75
2018-05-25T06:07:07.927Z,360.00
2018-05-25T06:08:08.160Z,365.63
2018-05-25T06:09:08.394Z,376.88
2018-05-25T06:10:08.613Z,382.50
2018-05-25T06:11:08.849Z,388.13
2018-05-25T06:12:09.083Z,393.75
2018-05-25T06:13:09.319Z,399.38
2018-05-25T06:14:09.549Z,399.38
2018-05-25T06:15:09.790Z,410.63
2018-05-25T06:16:10.008Z,410.63
2018-05-25T06:17:10.241Z,421.88
2018-05-25T06:18:10.471Z,433.13
2018-05-25T06:19:10.707Z,438.75
2018-05-25T06:20:10.931Z,438.75
2018-05-25T06:21:11.164Z,433.13
2018-05-25T06:22:11.395Z,427.50
2018-05-25T06:23:11.626Z,421.88
2018-05-25T06:24:11.857Z,421.88
2018-05-25T06:25:12.093Z,416.25
2018-05-25T06:26:12.315Z,421.88
2018-05-25T06:27:12.549Z,421.88
2018-05-25T06:28:12.781Z,427.50
2018-05-25T06:29:13.016Z,444.38
2018-05-25T06:30:13.233Z,461.25
2018-05-25T06:31:13.462Z,489.38
2018-05-25T06:32:13.703Z,506.25
2018-05-25T06:33:13.939Z,483.75
2018-05-25T06:34:14.174Z,483.75
2018-05-25T06:35:14.401Z,478.13
2018-05-25T06:36:14.640Z,483.75
2018-05-25T06:37:14.871Z,495.00
2018-05-25T06:38:15.112Z,511.88
2018-05-25T06:39:15.339Z,545.63
2018-05-25T06:40:15.566Z,573.75
2018-05-25T06:41:15.807Z,607.50
2018-05-25T06:42:16.035Z,675.00
2018-05-25T06:43:16.273Z,703.13
2018-05-25T06:44:16.505Z,703.13
2018-05-25T06:45:16.731Z,714.38
2018-05-25T06:46:16.963Z,742.50
2018-05-25T06:47:17.198Z,793.13
2018-05-25T06:48:17.432Z,821.25
2018-05-25T06:49:17.664Z,798.75
2018-05-25T06:50:17.909Z,787.50
2018-05-25T06:51:18.133Z,793.13
2018-05-25T06:52:18.369Z,731.25
2018-05-25T06:53:18.598Z,765.00
2018-05-25T06:54:18.836Z,753.75
2018-05-25T06:55:19.073Z,871.88
2018-05-25T06:56:19.313Z,905.63
2018-05-25T06:57:19.541Z,905.63
2018-05-25T06:58:19.772Z,871.88
2018-05-25T06:59:20.009Z,770.63
2018-05-25T07:00:20.249Z,736.88
2018-05-25T07:01:20.483Z,731.25
2018-05-25T07:02:20.726Z,736.88
2018-05-25T07:03:20.951Z,708.75
2018-05-25T07:04:21.188Z,646.88
2018-05-25T07:05:21.422Z,618.75
2018-05-25T07:06:21.657Z,607.50
2018-05-25T07:07:21.894Z,596.25
2018-05-25T07:08:22.132Z,590.63
2018-05-25T07:09:22.363Z,596.25
2018-05-25T07:10:22.598Z,590.63
2018-05-25T07:11:22.835Z,596.25
2018-05-25T07:12:23.075Z,601.88
2018-05-25T07:13:23.311Z,613.13
2018-05-25T07:14:23.541Z,630.00
2018-05-25T07:15:23.774Z,624.38
2018-05-25T07:16:24.908Z,607.50
2018-05-25T07:17:24.268Z,607.50
2018-05-25T07:18:24.508Z,618.75
2018-05-25T07:19:24.743Z,646.88
2018-05-25T07:20:24.975Z,669.38
2018-05-25T07:21:25.215Z,624.38
2018-05-25T07:22:25.449Z,658.13
2018-05-25T07:23:25.684Z,630.00
2018-05-25T07:24:25.956Z,630.00
2018-05-25T07:25:26.154Z,613.13
2018-05-25T07:26:26.406Z,652.50
2018-05-25T07:27:26.624Z,675.00
2018-05-25T07:28:26.859Z,703.13
2018-05-25T07:29:27.096Z,703.13
2018-05-25T07:30:27.332Z,703.13
2018-05-25T07:31:27.573Z,691.88
2018-05-25T07:32:27.810Z,686.25
2018-05-25T07:33:28.064Z,680.63
2018-05-25T07:34:28.284Z,686.25
2018-05-25T07:35:28.512Z,675.00
2018-05-25T07:36:28.759Z,686.25
2018-05-25T07:37:28.982Z,658.13
2018-05-25T07:38:29.220Z,658.13
2018-05-25T07:39:29.456Z,646.88
2018-05-25T07:40:29.690Z,607.50
2018-05-25T07:41:29.930Z,630.00
2018-05-25T07:42:30.165Z,635.63
2018-05-25T07:43:30.398Z,630.00
2018-05-25T07:44:30.634Z,618.75
2018-05-25T07:45:30.872Z,607.50
2018-05-25T07:46:31.109Z,596.25
2018-05-25T07:47:31.349Z,590.63
2018-05-25T07:48:31.583Z,596.25
2018-05-25T07:49:31.820Z,596.25
2018-05-25T07:50:32.057Z,607.50
2018-05-25T07:51:32.291Z,613.13
2018-05-25T07:52:32.526Z,607.50
2018-05-25T07:53:32.763Z,607.50
2018-05-25T07:54:33.003Z,607.50
2018-05-25T07:55:33.243Z,607.50
2018-05-25T07:56:33.473Z,607.50
2018-05-25T07:57:33.706Z,590.63
2018-05-25T07:58:33.943Z,590.63
2018-05-25T07:59:34.181Z,579.38
2018-05-25T08:00:34.411Z,585.00
2018-05-25T08:01:34.655Z,590.63
2018-05-25T08:02:34.883Z,590.63
2018-05-25T08:03:35.123Z,601.88
2018-05-25T08:04:35.357Z,601.88
2018-05-25T08:05:35.592Z,596.25
2018-05-25T08:06:35.829Z,601.88
2018-05-25T08:07:36.065Z,601.88
2018-05-25T08:08:36.300Z,596.25
2018-05-25T08:09:36.539Z,596.25
2018-05-25T08:10:36.772Z,601.88
2018-05-25T08:11:37.007Z,618.75
2018-05-25T08:12:37.247Z,613.13
2018-05-25T08:13:37.485Z,585.00
2018-05-25T08:14:37.722Z,601.88
2018-05-25T08:15:37.963Z,646.88
2018-05-25T08:16:38.197Z,568.13
2018-05-25T08:17:38.433Z,601.88
2018-05-25T08:18:38.668Z,641.25
2018-05-25T08:19:38.909Z,545.63
2018-05-25T08:20:39.139Z,534.38
2018-05-25T08:21:39.393Z,534.38
2018-05-25T08:22:39.612Z,545.63
2018-05-25T08:23:39.856Z,534.38
2018-05-25T08:24:40.088Z,562.50
2018-05-25T08:25:40.324Z,573.75
2018-05-25T08:26:40.566Z,601.88
2018-05-25T08:27:40.802Z,562.50
2018-05-25T08:28:41.037Z,500.63
2018-05-25T08:29:41.274Z,483.75
2018-05-25T08:30:41.511Z,478.13
2018-05-25T08:31:41.750Z,478.13
2018-05-25T08:32:41.981Z,483.75
2018-05-25T08:33:42.223Z,489.38
2018-05-25T08:34:42.459Z,495.00
2018-05-25T08:35:42.697Z,495.00
2018-05-25T08:36:42.934Z,489.38
2018-05-25T08:37:43.170Z,511.88
2018-05-25T08:38:43.409Z,568.13
2018-05-25T08:39:43.647Z,523.13
2018-05-25T08:40:43.883Z,466.88
2018-05-25T08:41:44.118Z,455.63
2018-05-25T08:42:44.358Z,455.63
2018-05-25T08:43:44.593Z,489.38
2018-05-25T08:44:44.828Z,500.63
2018-05-25T08:45:45.067Z,517.50
2018-05-25T08:46:45.307Z,534.38
2018-05-25T08:47:45.541Z,540.00
2018-05-25T08:48:45.777Z,562.50
2018-05-25T08:49:46.018Z,579.38
2018-05-25T08:50:46.254Z,585.00
2018-05-25T08:51:46.488Z,579.38
2018-05-25T08:52:46.723Z,568.13
2018-05-25T08:53:46.965Z,556.88
2018-05-25T08:54:47.198Z,556.88
2018-05-25T08:55:47.447Z,562.50
2018-05-25T08:56:47.679Z,551.25
2018-05-25T08:57:47.919Z,534.38
2018-05-25T08:58:48.142Z,523.13
2018-05-25T08:59:48.386Z,511.88
2018-05-25T09:00:48.612Z,511.88
2018-05-25T09:01:48.851Z,506.25
2018-05-25T09:02:49.086Z,506.25
2018-05-25T09:03:49.322Z,506.25
2018-05-25T09:04:49.565Z,506.25
2018-05-25T09:05:49.789Z,511.88
2018-05-25T09:06:50.078Z,511.88
2018-05-25T09:07:50.262Z,517.50
2018-05-25T09:08:50.499Z,528.75
2018-05-25T09:09:50.739Z,534.38
2018-05-25T09:10:50.975Z,534.38
2018-05-25T09:11:51.254Z,540.00
2018-05-25T09:12:51.446Z,545.63
2018-05-25T09:13:51.685Z,551.25
2018-05-25T09:14:51.921Z,556.88
2018-05-25T09:15:52.159Z,562.50
2018-05-25T09:16:52.398Z,579.38
2018-05-25T09:17:52.633Z,596.25
2018-05-25T09:18:52.873Z,613.13
2018-05-25T09:19:53.109Z,630.00
2018-05-25T09:20:53.345Z,641.25
2018-05-25T09:21:53.662Z,720.00
2018-05-25T09:22:53.818Z,635.63
2018-05-25T09:23:54.053Z,641.25
2018-05-25T09:24:54.289Z,630.00
2018-05-25T09:25:54.530Z,635.63
2018-05-25T09:26:54.770Z,691.88
2018-05-25T09:27:55.002Z,748.13
2018-05-25T09:28:55.238Z,708.75
2018-05-25T09:29:55.472Z,669.38
2018-05-25T09:30:55.761Z,652.50
2018-05-25T09:31:55.947Z,652.50
2018-05-25T09:32:56.182Z,646.88
2018-05-25T09:33:56.424Z,641.25
2018-05-25T09:34:56.658Z,630.00
2018-05-25T09:35:56.896Z,618.75
2018-05-25T09:36:57.134Z,601.88
2018-05-25T09:37:57.377Z,590.63
2018-05-25T09:38:57.614Z,551.25
2018-05-25T09:39:57.850Z,534.38
2018-05-25T09:40:58.087Z,523.13
2018-05-25T09:41:58.326Z,517.50
2018-05-25T09:42:58.562Z,511.88
2018-05-25T09:43:58.799Z,495.00
2018-05-25T09:44:59.041Z,472.50
2018-05-25T09:45:59.278Z,461.25
2018-05-25T09:46:59.515Z,455.63
2018-05-25T09:47:59.756Z,478.13
2018-05-25T09:48:59.992Z,495.00
2018-05-25T09:50:00.231Z,534.38
2018-05-25T09:51:00.468Z,568.13
2018-05-25T09:52:00.703Z,607.50
2018-05-25T09:53:00.948Z,607.50
2018-05-25T09:54:01.184Z,590.63
2018-05-25T09:55:01.420Z,568.13
2018-05-25T09:56:01.678Z,556.88
2018-05-25T09:57:01.895Z,545.63
2018-05-25T09:58:02.135Z,545.63
2018-05-25T09:59:02.373Z,545.63
2018-05-25T10:00:09.476Z,545.63
2018-05-25T10:01:02.808Z,545.63
2018-05-25T10:02:03.043Z,551.25
2018-05-25T10:03:03.277Z,556.88
2018-05-25T10:04:03.525Z,562.50
2018-05-25T10:05:03.754Z,551.25
2018-05-25T10:06:03.988Z,540.00
2018-05-25T10:07:04.229Z,523.13
2018-05-25T10:08:04.463Z,506.25
2018-05-25T10:09:04.704Z,500.63
2018-05-25T10:10:04.942Z,495.00
2018-05-25T10:11:05.188Z,478.13
2018-05-25T10:12:05.469Z,466.88
2018-05-25T10:13:05.663Z,466.88
2018-05-25T10:14:05.903Z,461.25
2018-05-25T10:15:06.139Z,466.88
2018-05-25T10:16:06.379Z,472.50
2018-05-25T10:17:06.612Z,483.75
2018-05-25T10:18:06.850Z,489.38
2018-05-25T10:19:07.091Z,495.00
2018-05-25T10:20:07.326Z,551.25
2018-05-25T10:21:07.560Z,511.88
2018-05-25T10:22:07.799Z,500.63
2018-05-25T10:23:08.037Z,495.00
2018-05-25T10:24:08.280Z,461.25
2018-05-25T10:25:08.513Z,433.13
2018-05-25T10:26:08.749Z,410.63
2018-05-25T10:27:08.984Z,416.25
2018-05-25T10:28:09.231Z,421.88
2018-05-25T10:29:09.461Z,421.88
2018-05-25T10:30:09.697Z,416.25
2018-05-25T10:31:09.937Z,427.50
2018-05-25T10:32:10.175Z,427.50
2018-05-25T10:33:10.413Z,438.75
2018-05-25T10:34:10.661Z,444.38
2018-05-25T10:35:10.948Z,450.00
2018-05-25T10:36:11.126Z,438.75
2018-05-25T10:37:11.359Z,427.50
2018-05-25T10:38:11.596Z,444.38
2018-05-25T10:39:11.833Z,500.63
2018-05-25T10:40:12.077Z,523.13
2018-05-25T10:41:12.300Z,506.25
2018-05-25T10:42:12.553Z,500.63
2018-05-25T10:43:12.791Z,466.88
2018-05-25T10:44:13.025Z,388.13
2018-05-25T10:45:13.265Z,388.13
2018-05-25T10:46:13.501Z,388.13
2018-05-25T10:47:13.739Z,393.75
2018-05-25T10:48:13.978Z,388.13
2018-05-25T10:49:14.211Z,427.50
2018-05-25T10:50:14.447Z,506.25
2018-05-25T10:51:14.683Z,495.00
2018-05-25T10:52:14.920Z,483.75
2018-05-25T10:53:15.157Z,489.38
2018-05-25T10:54:15.396Z,495.00
2018-05-25T10:55:15.632Z,478.13
2018-05-25T10:56:15.868Z,472.50
2018-05-25T10:57:16.105Z,478.13
2018-05-25T10:58:16.344Z,461.25
2018-05-25T10:59:16.585Z,500.63
2018-05-25T11:00:16.813Z,455.63
2018-05-25T11:01:17.047Z,511.88
2018-05-25T11:02:17.281Z,405.00
2018-05-25T11:03:17.516Z,393.75
2018-05-25T11:04:17.754Z,421.88
2018-05-25T11:05:17.992Z,393.75
2018-05-25T11:06:18.218Z,393.75
2018-05-25T11:07:18.457Z,399.38
2018-05-25T11:08:18.695Z,405.00
2018-05-25T11:09:18.919Z,421.88
2018-05-25T11:10:19.167Z,433.13
2018-05-25T11:11:19.380Z,444.38
2018-05-25T11:12:19.614Z,495.00
2018-05-25T11:13:19.851Z,444.38
2018-05-25T11:14:20.085Z,450.00
2018-05-25T11:15:20.365Z,455.63
2018-05-25T11:16:20.611Z,551.25
2018-05-25T11:17:20.837Z,556.88
2018-05-25T11:18:21.075Z,573.75
2018-05-25T11:19:21.311Z,585.00
2018-05-25T11:20:21.565Z,590.63
2018-05-25T11:21:21.787Z,579.38
2018-05-25T11:22:22.019Z,562.50
2018-05-25T11:23:22.261Z,455.63
2018-05-25T11:24:22.499Z,450.00
2018-05-25T11:25:22.729Z,450.00
2018-05-25T11:26:22.963Z,483.75
2018-05-25T11:27:23.204Z,540.00
2018-05-25T11:28:23.432Z,528.75
2018-05-25T11:29:23.664Z,545.63
2018-05-25T11:30:23.892Z,590.63
2018-05-25T11:31:24.127Z,607.50
2018-05-25T11:32:24.364Z,562.50
2018-05-25T11:33:24.602Z,528.75
2018-05-25T11:34:24.840Z,545.63
2018-05-25T11:35:25.076Z,585.00
2018-05-25T11:36:25.313Z,663.75
2018-05-25T11:37:25.551Z,663.75
2018-05-25T11:38:25.792Z,652.50
2018-05-25T11:39:26.029Z,641.25
2018-05-25T11:40:26.266Z,613.13
2018-05-25T11:41:26.506Z,601.88
2018-05-25T11:42:26.741Z,585.00
2018-05-25T11:43:26.980Z,568.13
2018-05-25T11:44:27.215Z,466.88
2018-05-25T11:45:27.455Z,551.25
2018-05-25T11:46:27.693Z,579.38
2018-05-25T11:47:27.930Z,585.00
2018-05-25T11:48:28.183Z,590.63
2018-05-25T11:49:28.407Z,590.63
2018-05-25T11:50:28.645Z,466.88
2018-05-25T11:51:28.883Z,461.25
2018-05-25T11:52:29.124Z,444.38
2018-05-25T11:53:29.356Z,433.13
2018-05-25T11:54:29.592Z,427.50
2018-05-25T11:55:29.829Z,421.88
2018-05-25T11:56:30.071Z,421.88
2018-05-25T11:57:30.301Z,421.88
2018-05-25T11:58:30.540Z,410.63
2018-05-25T11:59:30.785Z,399.38
2018-05-25T12:00:31.024Z,399.38
2018-05-25T12:01:31.291Z,393.75
2018-05-25T12:02:31.501Z,399.38
2018-05-25T12:03:31.740Z,399.38
2018-05-25T12:04:31.976Z,393.75
2018-05-25T12:05:32.217Z,393.75
2018-05-25T12:06:32.494Z,399.38
2018-05-25T12:07:32.692Z,450.00
2018-05-25T12:08:32.930Z,478.13
2018-05-25T12:09:33.170Z,528.75
2018-05-25T12:10:33.425Z,517.50
2018-05-25T12:11:33.650Z,466.88
2018-05-25T12:12:33.878Z,427.50
2018-05-25T12:13:34.115Z,478.13
2018-05-25T12:14:34.354Z,388.13
2018-05-25T12:15:34.590Z,382.50
2018-05-25T12:16:34.894Z,483.75
2018-05-25T12:17:35.061Z,427.50
2018-05-25T12:18:35.296Z,382.50
2018-05-25T12:19:35.535Z,388.13
2018-05-25T12:20:35.774Z,410.63
2018-05-25T12:21:36.009Z,495.00
2018-05-25T12:22:36.249Z,517.50
2018-05-25T12:23:36.483Z,500.63
2018-05-25T12:24:36.715Z,517.50
2018-05-25T12:25:36.951Z,523.13
2018-05-25T12:26:37.190Z,405.00
2018-05-25T12:27:37.426Z,472.50
2018-05-25T12:28:37.666Z,545.63
2018-05-25T12:29:37.908Z,540.00
2018-05-25T12:30:38.141Z,545.63
2018-05-25T12:31:38.379Z,545.63
2018-05-25T12:32:38.617Z,551.25
2018-05-25T12:33:38.854Z,551.25
2018-05-25T12:34:39.090Z,551.25
2018-05-25T12:35:39.335Z,556.88
2018-05-25T12:36:39.569Z,562.50
2018-05-25T12:37:39.804Z,579.38
2018-05-25T12:38:40.042Z,601.88
2018-05-25T12:39:40.282Z,618.75
2018-05-25T12:40:40.519Z,624.38
2018-05-25T12:41:40.754Z,635.63
2018-05-25T12:42:40.992Z,646.88
2018-05-25T12:43:41.232Z,635.63
2018-05-25T12:44:41.469Z,630.00
2018-05-25T12:45:41.714Z,613.13
2018-05-25T12:46:41.949Z,613.13